sensor_id;sensor_type;location;lat;lon;timestamp;temperature;humidity
5246;DHT22;54412;51.206;6.888;2023-10-31T00:01:49;12.50;99.90
5246;DHT22;54412;51.206;6.888;2023-10-31T00:04:15;12.50;99.90
5246;DHT22;54412;51.206;6.888;2023-10-31T00:06:41;12.50;99.90
5246;DHT22;54412;51.206;6.888;2023-10-31T00:09:08;12.40;99.90
5246;DHT22;54412;51.206;6.888;2023-10-31T00:11:33;12.50;99.90
5246;DHT22;54412;51.206;6.888;2023-10-31T00:13:59;12.50;99.90
5246;DHT22;54412;51.206;6.888;2023-10-31T00:16:25;12.60;99.90
5246;DHT22;54412;51.206;6.888;2023-10-31T00:18:51;12.50;99.90
5246;DHT22;54412;51.206;6.888;2023-10-31T00:21:16;12.50;99.90
5246;DHT22;54412;51.206;6.888;2023-10-31T00:23:46;12.40;99.90
5246;DHT22;54412;51.206;6.888;2023-10-31T00:26:12;12.40;99.90
5246;DHT22;54412;51.206;6.888;2023-10-31T00:28:38;12.30;99.90
5246;DHT22;54412;51.206;6.888;2023-10-31T00:31:04;12.20;99.90
5246;DHT22;54412;51.206;6.888;2023-10-31T00:33:32;12.30;99.90
5246;DHT22;54412;51.206;6.888;2023-10-31T00:35:57;12.30;99.90
5246;DHT22;54412;51.206;6.888;2023-10-31T00:38:23;12.30;99.90
5246;DHT22;54412;51.206;6.888;2023-10-31T00:40:49;12.30;99.90
5246;DHT22;54412;51.206;6.888;2023-10-31T00:43:14;12.20;99.90
5246;DHT22;54412;51.206;6.888;2023-10-31T00:45:40;12.20;99.90
5246;DHT22;54412;51.206;6.888;2023-10-31T00:48:06;12.10;99.90
5246;DHT22;54412;51.206;6.888;2023-10-31T00:50:31;12.10;99.90
5246;DHT22;54412;51.206;6.888;2023-10-31T00:52:57;12.10;99.90
5246;DHT22;54412;51.206;6.888;2023-10-31T00:55:23;12.00;99.90
5246;DHT22;54412;51.206;6.888;2023-10-31T00:57:48;12.10;99.90
5246;DHT22;54412;51.206;6.888;2023-10-31T01:00:14;12.10;99.90
5246;DHT22;54412;51.206;6.888;2023-10-31T01:02:40;12.10;99.90
5246;DHT22;54412;51.206;6.888;2023-10-31T01:05:06;12.20;99.90
5246;DHT22;54412;51.206;6.888;2023-10-31T01:07:32;12.00;99.90
5246;DHT22;54412;51.206;6.888;2023-10-31T01:09:59;12.10;99.90
5246;DHT22;54412;51.206;6.888;2023-10-31T01:12:24;12.00;99.90
5246;DHT22;54412;51.206;6.888;2023-10-31T01:14:53;12.10;99.90
5246;DHT22;54412;51.206;6.888;2023-10-31T01:17:20;12.20;99.90
5246;DHT22;54412;51.206;6.888;2023-10-31T01:19:46;12.20;99.90
5246;DHT22;54412;51.206;6.888;2023-10-31T01:22:12;12.20;99.90
5246;DHT22;54412;51.206;6.888;2023-10-31T01:24:38;12.10;99.90
5246;DHT22;54412;51.206;6.888;2023-10-31T01:27:03;12.00;99.90
5246;DHT22;54412;51.206;6.888;2023-10-31T01:29:29;12.00;99.90
5246;DHT22;54412;51.206;6.888;2023-10-31T01:31:55;12.00;99.90
5246;DHT22;54412;51.206;6.888;2023-10-31T01:34:21;12.00;99.90
5246;DHT22;54412;51.206;6.888;2023-10-31T01:36:47;12.00;99.90
5246;DHT22;54412;51.206;6.888;2023-10-31T01:39:12;12.10;99.90
5246;DHT22;54412;51.206;6.888;2023-10-31T01:41:41;12.10;99.90
5246;DHT22;54412;51.206;6.888;2023-10-31T01:44:08;12.10;99.90
5246;DHT22;54412;51.206;6.888;2023-10-31T01:46:34;12.10;99.90
5246;DHT22;54412;51.206;6.888;2023-10-31T01:48:59;12.00;99.90
5246;DHT22;54412;51.206;6.888;2023-10-31T01:51:26;12.10;99.90
5246;DHT22;54412;51.206;6.888;2023-10-31T01:53:53;12.00;99.90
5246;DHT22;54412;51.206;6.888;2023-10-31T01:56:20;12.00;99.90
5246;DHT22;54412;51.206;6.888;2023-10-31T01:58:46;12.00;99.90
5246;DHT22;54412;51.206;6.888;2023-10-31T02:01:13;12.10;99.90
5246;DHT22;54412;51.206;6.888;2023-10-31T02:03:39;12.10;99.90
5246;DHT22;54412;51.206;6.888;2023-10-31T02:06:05;12.20;99.90
5246;DHT22;54412;51.206;6.888;2023-10-31T02:08:31;12.20;99.90
5246;DHT22;54412;51.206;6.888;2023-10-31T02:10:57;12.10;99.90
5246;DHT22;54412;51.206;6.888;2023-10-31T02:13:22;12.10;99.90
5246;DHT22;54412;51.206;6.888;2023-10-31T02:15:48;12.00;99.90
5246;DHT22;54412;51.206;6.888;2023-10-31T02:18:14;11.90;99.90
5246;DHT22;54412;51.206;6.888;2023-10-31T02:20:41;11.80;99.90
5246;DHT22;54412;51.206;6.888;2023-10-31T02:23:07;12.00;99.90
5246;DHT22;54412;51.206;6.888;2023-10-31T02:25:33;11.80;99.90
5246;DHT22;54412;51.206;6.888;2023-10-31T02:27:59;11.90;99.90
5246;DHT22;54412;51.206;6.888;2023-10-31T02:30:26;11.80;99.90
5246;DHT22;54412;51.206;6.888;2023-10-31T02:32:52;11.90;99.90
5246;DHT22;54412;51.206;6.888;2023-10-31T02:35:18;11.80;99.90
5246;DHT22;54412;51.206;6.888;2023-10-31T02:37:47;11.80;99.90
5246;DHT22;54412;51.206;6.888;2023-10-31T02:40:14;11.90;99.90
5246;DHT22;54412;51.206;6.888;2023-10-31T02:42:40;11.90;99.90
5246;DHT22;54412;51.206;6.888;2023-10-31T02:45:06;11.90;99.90
5246;DHT22;54412;51.206;6.888;2023-10-31T02:47:32;11.90;99.90
5246;DHT22;54412;51.206;6.888;2023-10-31T02:49:58;11.90;99.90
5246;DHT22;54412;51.206;6.888;2023-10-31T02:52:23;11.80;99.90
5246;DHT22;54412;51.206;6.888;2023-10-31T02:54:49;11.90;99.90
5246;DHT22;54412;51.206;6.888;2023-10-31T02:57:16;11.80;99.90
5246;DHT22;54412;51.206;6.888;2023-10-31T02:59:42;11.70;99.90
5246;DHT22;54412;51.206;6.888;2023-10-31T03:02:07;11.70;99.90
5246;DHT22;54412;51.206;6.888;2023-10-31T03:04:33;11.60;99.90
5246;DHT22;54412;51.206;6.888;2023-10-31T03:06:59;11.60;99.90
5246;DHT22;54412;51.206;6.888;2023-10-31T03:09:25;11.70;99.90
5246;DHT22;54412;51.206;6.888;2023-10-31T03:11:50;11.60;99.90
5246;DHT22;54412;51.206;6.888;2023-10-31T03:14:16;11.70;99.90
5246;DHT22;54412;51.206;6.888;2023-10-31T03:16:42;11.70;99.90
5246;DHT22;54412;51.206;6.888;2023-10-31T03:19:07;11.70;99.90
5246;DHT22;54412;51.206;6.888;2023-10-31T03:21:33;11.70;99.90
5246;DHT22;54412;51.206;6.888;2023-10-31T03:23:59;11.80;99.90
5246;DHT22;54412;51.206;6.888;2023-10-31T03:26:25;11.80;99.90
5246;DHT22;54412;51.206;6.888;2023-10-31T03:28:51;11.80;99.90
5246;DHT22;54412;51.206;6.888;2023-10-31T03:31:16;11.90;99.90
5246;DHT22;54412;51.206;6.888;2023-10-31T03:33:43;11.90;99.90
5246;DHT22;54412;51.206;6.888;2023-10-31T03:36:09;11.90;99.90
5246;DHT22;54412;51.206;6.888;2023-10-31T03:38:35;11.90;99.90
5246;DHT22;54412;51.206;6.888;2023-10-31T03:41:01;11.80;99.90
5246;DHT22;54412;51.206;6.888;2023-10-31T03:43:27;11.80;99.90
5246;DHT22;54412;51.206;6.888;2023-10-31T03:45:54;11.80;99.90
5246;DHT22;54412;51.206;6.888;2023-10-31T03:48:19;11.90;99.90
5246;DHT22;54412;51.206;6.888;2023-10-31T03:50:45;11.80;99.90
5246;DHT22;54412;51.206;6.888;2023-10-31T03:53:11;11.80;99.90
5246;DHT22;54412;51.206;6.888;2023-10-31T03:55:37;11.90;99.90
5246;DHT22;54412;51.206;6.888;2023-10-31T03:58:02;11.80;99.90
5246;DHT22;54412;51.206;6.888;2023-10-31T04:00:28;11.80;99.90
5246;DHT22;54412;51.206;6.888;2023-10-31T04:02:54;11.90;99.90
5246;DHT22;54412;51.206;6.888;2023-10-31T04:05:20;11.70;99.90
5246;DHT22;54412;51.206;6.888;2023-10-31T04:07:46;11.70;99.90
5246;DHT22;54412;51.206;6.888;2023-10-31T04:10:12;11.80;99.90
5246;DHT22;54412;51.206;6.888;2023-10-31T04:12:38;11.80;99.90
5246;DHT22;54412;51.206;6.888;2023-10-31T04:15:05;11.80;99.90
5246;DHT22;54412;51.206;6.888;2023-10-31T04:17:31;11.80;99.90
5246;DHT22;54412;51.206;6.888;2023-10-31T04:19:57;11.70;99.90
5246;DHT22;54412;51.206;6.888;2023-10-31T04:22:22;11.70;99.90
5246;DHT22;54412;51.206;6.888;2023-10-31T04:24:48;11.80;99.90
5246;DHT22;54412;51.206;6.888;2023-10-31T04:30:42;11.80;99.90
5246;DHT22;54412;51.206;6.888;2023-10-31T04:33:08;11.90;99.90
5246;DHT22;54412;51.206;6.888;2023-10-31T04:35:33;11.90;99.90
5246;DHT22;54412;51.206;6.888;2023-10-31T04:37:59;11.90;99.90
5246;DHT22;54412;51.206;6.888;2023-10-31T04:40:25;11.80;99.90
5246;DHT22;54412;51.206;6.888;2023-10-31T04:42:50;11.70;99.90
5246;DHT22;54412;51.206;6.888;2023-10-31T04:45:16;11.90;99.90
5246;DHT22;54412;51.206;6.888;2023-10-31T04:47:42;11.90;99.90
5246;DHT22;54412;51.206;6.888;2023-10-31T04:50:08;11.90;99.90
5246;DHT22;54412;51.206;6.888;2023-10-31T04:52:34;11.70;99.90
5246;DHT22;54412;51.206;6.888;2023-10-31T04:55:00;11.90;99.90
5246;DHT22;54412;51.206;6.888;2023-10-31T04:57:25;11.80;99.90
5246;DHT22;54412;51.206;6.888;2023-10-31T04:59:51;11.80;99.90
5246;DHT22;54412;51.206;6.888;2023-10-31T05:02:21;11.90;99.90
5246;DHT22;54412;51.206;6.888;2023-10-31T05:04:48;11.90;99.90
5246;DHT22;54412;51.206;6.888;2023-10-31T05:07:17;11.90;99.90
5246;DHT22;54412;51.206;6.888;2023-10-31T05:09:43;11.90;99.90
5246;DHT22;54412;51.206;6.888;2023-10-31T05:12:08;11.90;99.90
5246;DHT22;54412;51.206;6.888;2023-10-31T05:14:34;11.80;99.90
5246;DHT22;54412;51.206;6.888;2023-10-31T05:17:00;11.80;99.90
5246;DHT22;54412;51.206;6.888;2023-10-31T05:19:26;11.60;99.90
5246;DHT22;54412;51.206;6.888;2023-10-31T05:21:52;11.70;99.90
5246;DHT22;54412;51.206;6.888;2023-10-31T05:24:18;11.70;99.90
5246;DHT22;54412;51.206;6.888;2023-10-31T05:26:44;11.70;99.90
5246;DHT22;54412;51.206;6.888;2023-10-31T05:29:10;11.60;99.90
5246;DHT22;54412;51.206;6.888;2023-10-31T05:31:36;11.60;99.90
5246;DHT22;54412;51.206;6.888;2023-10-31T05:34:02;11.60;99.90
5246;DHT22;54412;51.206;6.888;2023-10-31T05:36:32;11.70;99.90
5246;DHT22;54412;51.206;6.888;2023-10-31T05:38:58;11.70;99.90
5246;DHT22;54412;51.206;6.888;2023-10-31T05:41:23;11.80;99.90
5246;DHT22;54412;51.206;6.888;2023-10-31T05:43:49;11.80;99.90
5246;DHT22;54412;51.206;6.888;2023-10-31T05:46:15;11.80;99.90
5246;DHT22;54412;51.206;6.888;2023-10-31T05:48:42;12.00;99.90
5246;DHT22;54412;51.206;6.888;2023-10-31T05:51:13;11.90;99.90
5246;DHT22;54412;51.206;6.888;2023-10-31T05:53:41;11.90;99.90
5246;DHT22;54412;51.206;6.888;2023-10-31T05:56:09;11.90;99.90
5246;DHT22;54412;51.206;6.888;2023-10-31T05:58:37;11.90;99.90
5246;DHT22;54412;51.206;6.888;2023-10-31T06:01:04;12.00;99.90
5246;DHT22;54412;51.206;6.888;2023-10-31T06:03:30;12.00;99.90
5246;DHT22;54412;51.206;6.888;2023-10-31T06:05:56;12.00;99.90
5246;DHT22;54412;51.206;6.888;2023-10-31T06:08:21;12.00;99.90
5246;DHT22;54412;51.206;6.888;2023-10-31T06:10:49;11.90;99.90
5246;DHT22;54412;51.206;6.888;2023-10-31T06:13:16;11.80;99.90
5246;DHT22;54412;51.206;6.888;2023-10-31T06:15:42;11.80;99.90
5246;DHT22;54412;51.206;6.888;2023-10-31T06:18:08;11.80;99.90
5246;DHT22;54412;51.206;6.888;2023-10-31T06:20:34;12.00;99.90
5246;DHT22;54412;51.206;6.888;2023-10-31T06:23:01;11.90;99.90
5246;DHT22;54412;51.206;6.888;2023-10-31T06:25:29;11.90;99.90
5246;DHT22;54412;51.206;6.888;2023-10-31T06:27:55;11.90;99.90
5246;DHT22;54412;51.206;6.888;2023-10-31T06:30:21;11.70;99.90
5246;DHT22;54412;51.206;6.888;2023-10-31T06:32:46;11.70;99.90
5246;DHT22;54412;51.206;6.888;2023-10-31T06:35:12;11.70;99.90
5246;DHT22;54412;51.206;6.888;2023-10-31T06:37:38;11.70;99.90
5246;DHT22;54412;51.206;6.888;2023-10-31T06:40:04;11.80;99.90
5246;DHT22;54412;51.206;6.888;2023-10-31T06:42:31;11.70;99.90
5246;DHT22;54412;51.206;6.888;2023-10-31T06:44:56;11.80;99.90
5246;DHT22;54412;51.206;6.888;2023-10-31T06:47:22;11.70;99.90
5246;DHT22;54412;51.206;6.888;2023-10-31T06:49:47;11.70;99.90
5246;DHT22;54412;51.206;6.888;2023-10-31T06:52:13;11.70;99.90
5246;DHT22;54412;51.206;6.888;2023-10-31T06:54:39;11.70;99.90
5246;DHT22;54412;51.206;6.888;2023-10-31T06:57:10;11.70;99.90
5246;DHT22;54412;51.206;6.888;2023-10-31T06:59:36;11.70;99.90
5246;DHT22;54412;51.206;6.888;2023-10-31T07:02:02;11.70;99.90
5246;DHT22;54412;51.206;6.888;2023-10-31T07:04:27;11.70;99.90
5246;DHT22;54412;51.206;6.888;2023-10-31T07:06:53;11.70;99.90
5246;DHT22;54412;51.206;6.888;2023-10-31T07:09:26;11.70;99.90
5246;DHT22;54412;51.206;6.888;2023-10-31T07:11:52;11.80;99.90
5246;DHT22;54412;51.206;6.888;2023-10-31T07:14:18;11.70;99.90
5246;DHT22;54412;51.206;6.888;2023-10-31T07:16:43;11.80;99.90
5246;DHT22;54412;51.206;6.888;2023-10-31T07:19:12;11.80;99.90
5246;DHT22;54412;51.206;6.888;2023-10-31T07:21:38;11.80;99.90
5246;DHT22;54412;51.206;6.888;2023-10-31T07:24:04;11.70;99.90
5246;DHT22;54412;51.206;6.888;2023-10-31T07:26:30;11.70;99.90
5246;DHT22;54412;51.206;6.888;2023-10-31T07:28:55;11.70;99.90
5246;DHT22;54412;51.206;6.888;2023-10-31T07:31:21;11.60;99.90
5246;DHT22;54412;51.206;6.888;2023-10-31T07:33:47;11.70;99.90
5246;DHT22;54412;51.206;6.888;2023-10-31T07:36:13;11.60;99.90
5246;DHT22;54412;51.206;6.888;2023-10-31T07:38:39;11.70;99.90
5246;DHT22;54412;51.206;6.888;2023-10-31T07:41:04;11.60;99.90
5246;DHT22;54412;51.206;6.888;2023-10-31T07:43:30;11.70;99.90
5246;DHT22;54412;51.206;6.888;2023-10-31T07:45:56;11.60;99.90
5246;DHT22;54412;51.206;6.888;2023-10-31T07:48:21;11.60;99.90
5246;DHT22;54412;51.206;6.888;2023-10-31T07:50:47;11.60;99.90
5246;DHT22;54412;51.206;6.888;2023-10-31T07:53:13;11.70;99.90
5246;DHT22;54412;51.206;6.888;2023-10-31T07:55:38;11.70;99.90
5246;DHT22;54412;51.206;6.888;2023-10-31T07:58:04;11.80;99.90
5246;DHT22;54412;51.206;6.888;2023-10-31T08:00:30;11.70;99.90
5246;DHT22;54412;51.206;6.888;2023-10-31T08:02:56;11.70;99.90
5246;DHT22;54412;51.206;6.888;2023-10-31T08:05:22;11.80;99.90
5246;DHT22;54412;51.206;6.888;2023-10-31T08:07:47;11.90;99.90
5246;DHT22;54412;51.206;6.888;2023-10-31T08:10:13;11.90;99.90
5246;DHT22;54412;51.206;6.888;2023-10-31T08:12:39;11.90;99.90
5246;DHT22;54412;51.206;6.888;2023-10-31T08:15:05;12.00;99.90
5246;DHT22;54412;51.206;6.888;2023-10-31T08:17:31;12.20;99.90
5246;DHT22;54412;51.206;6.888;2023-10-31T08:19:57;12.00;99.90
5246;DHT22;54412;51.206;6.888;2023-10-31T08:22:23;11.80;99.90
5246;DHT22;54412;51.206;6.888;2023-10-31T08:24:48;12.00;99.90
5246;DHT22;54412;51.206;6.888;2023-10-31T08:27:14;12.00;99.90
5246;DHT22;54412;51.206;6.888;2023-10-31T08:29:39;12.10;99.90
5246;DHT22;54412;51.206;6.888;2023-10-31T08:32:06;12.10;99.90
5246;DHT22;54412;51.206;6.888;2023-10-31T08:34:31;12.20;99.90
5246;DHT22;54412;51.206;6.888;2023-10-31T08:36:57;12.20;99.90
5246;DHT22;54412;51.206;6.888;2023-10-31T08:39:25;12.30;99.90
5246;DHT22;54412;51.206;6.888;2023-10-31T08:41:52;12.40;99.90
5246;DHT22;54412;51.206;6.888;2023-10-31T08:44:22;12.40;99.90
5246;DHT22;54412;51.206;6.888;2023-10-31T08:46:49;12.40;99.90
5246;DHT22;54412;51.206;6.888;2023-10-31T08:49:15;12.50;99.90
5246;DHT22;54412;51.206;6.888;2023-10-31T08:51:41;12.70;99.90
5246;DHT22;54412;51.206;6.888;2023-10-31T08:54:08;12.50;99.90
5246;DHT22;54412;51.206;6.888;2023-10-31T08:56:34;12.60;99.90
5246;DHT22;54412;51.206;6.888;2023-10-31T08:59:00;12.50;99.90
5246;DHT22;54412;51.206;6.888;2023-10-31T09:01:27;12.30;99.90
5246;DHT22;54412;51.206;6.888;2023-10-31T09:03:54;12.30;99.90
5246;DHT22;54412;51.206;6.888;2023-10-31T09:06:20;12.30;99.90
5246;DHT22;54412;51.206;6.888;2023-10-31T09:08:46;12.20;99.90
5246;DHT22;54412;51.206;6.888;2023-10-31T09:11:11;12.10;99.90
5246;DHT22;54412;51.206;6.888;2023-10-31T09:13:37;12.10;99.90
5246;DHT22;54412;51.206;6.888;2023-10-31T09:16:03;12.20;99.90
5246;DHT22;54412;51.206;6.888;2023-10-31T09:18:29;12.30;99.90
5246;DHT22;54412;51.206;6.888;2023-10-31T09:20:55;12.30;99.90
5246;DHT22;54412;51.206;6.888;2023-10-31T09:23:20;12.40;99.90
5246;DHT22;54412;51.206;6.888;2023-10-31T09:25:46;12.40;99.90
5246;DHT22;54412;51.206;6.888;2023-10-31T09:28:12;12.50;99.90
5246;DHT22;54412;51.206;6.888;2023-10-31T09:30:38;12.40;99.90
5246;DHT22;54412;51.206;6.888;2023-10-31T09:33:03;12.30;99.90
5246;DHT22;54412;51.206;6.888;2023-10-31T09:35:29;12.40;99.90
5246;DHT22;54412;51.206;6.888;2023-10-31T09:37:55;12.40;99.90
5246;DHT22;54412;51.206;6.888;2023-10-31T09:40:21;12.50;99.90
5246;DHT22;54412;51.206;6.888;2023-10-31T09:42:48;12.70;99.90
5246;DHT22;54412;51.206;6.888;2023-10-31T09:45:15;13.00;99.90
5246;DHT22;54412;51.206;6.888;2023-10-31T09:47:41;13.00;99.90
5246;DHT22;54412;51.206;6.888;2023-10-31T09:50:10;13.00;99.90
5246;DHT22;54412;51.206;6.888;2023-10-31T09:52:37;12.90;99.90
5246;DHT22;54412;51.206;6.888;2023-10-31T09:55:04;12.90;99.90
5246;DHT22;54412;51.206;6.888;2023-10-31T09:57:31;13.00;99.90
5246;DHT22;54412;51.206;6.888;2023-10-31T09:59:57;12.90;99.90
5246;DHT22;54412;51.206;6.888;2023-10-31T10:02:24;13.00;99.90
5246;DHT22;54412;51.206;6.888;2023-10-31T10:04:50;13.10;99.90
5246;DHT22;54412;51.206;6.888;2023-10-31T10:07:17;13.00;99.90
5246;DHT22;54412;51.206;6.888;2023-10-31T10:09:45;12.90;99.90
5246;DHT22;54412;51.206;6.888;2023-10-31T10:12:13;13.00;99.90
5246;DHT22;54412;51.206;6.888;2023-10-31T10:14:39;13.00;99.90
5246;DHT22;54412;51.206;6.888;2023-10-31T10:17:24;13.00;99.90
5246;DHT22;54412;51.206;6.888;2023-10-31T10:20:09;13.00;99.90
5246;DHT22;54412;51.206;6.888;2023-10-31T10:22:38;13.00;99.90
5246;DHT22;54412;51.206;6.888;2023-10-31T10:25:16;12.90;99.90
5246;DHT22;54412;51.206;6.888;2023-10-31T10:27:44;12.80;99.90
5246;DHT22;54412;51.206;6.888;2023-10-31T10:30:12;12.90;99.90
5246;DHT22;54412;51.206;6.888;2023-10-31T10:32:39;13.00;99.90
5246;DHT22;54412;51.206;6.888;2023-10-31T10:35:06;12.90;99.90
5246;DHT22;54412;51.206;6.888;2023-10-31T10:37:32;12.80;99.90
5246;DHT22;54412;51.206;6.888;2023-10-31T10:40:02;12.90;99.90
5246;DHT22;54412;51.206;6.888;2023-10-31T10:45:14;12.90;99.90
5246;DHT22;54412;51.206;6.888;2023-10-31T10:47:45;12.80;99.90
5246;DHT22;54412;51.206;6.888;2023-10-31T10:50:13;12.90;99.90
5246;DHT22;54412;51.206;6.888;2023-10-31T10:52:44;12.90;99.90
5246;DHT22;54412;51.206;6.888;2023-10-31T10:55:21;12.90;99.90
5246;DHT22;54412;51.206;6.888;2023-10-31T10:58:03;13.00;99.90
5246;DHT22;54412;51.206;6.888;2023-10-31T11:00:31;13.00;99.90
5246;DHT22;54412;51.206;6.888;2023-10-31T11:02:57;12.90;99.90
5246;DHT22;54412;51.206;6.888;2023-10-31T11:05:24;13.10;99.90
5246;DHT22;54412;51.206;6.888;2023-10-31T11:07:51;12.90;99.90
5246;DHT22;54412;51.206;6.888;2023-10-31T11:10:18;13.10;99.90
5246;DHT22;54412;51.206;6.888;2023-10-31T11:12:44;13.30;99.90
5246;DHT22;54412;51.206;6.888;2023-10-31T11:15:12;13.20;99.90
5246;DHT22;54412;51.206;6.888;2023-10-31T11:17:43;13.20;99.90
5246;DHT22;54412;51.206;6.888;2023-10-31T11:20:11;13.40;99.90
5246;DHT22;54412;51.206;6.888;2023-10-31T11:22:46;13.30;99.90
5246;DHT22;54412;51.206;6.888;2023-10-31T11:25:20;13.20;99.90
5246;DHT22;54412;51.206;6.888;2023-10-31T11:27:50;13.10;99.90
5246;DHT22;54412;51.206;6.888;2023-10-31T11:30:29;13.30;99.90
5246;DHT22;54412;51.206;6.888;2023-10-31T11:32:58;13.50;99.90
5246;DHT22;54412;51.206;6.888;2023-10-31T11:35:29;13.60;99.90
5246;DHT22;54412;51.206;6.888;2023-10-31T11:38:07;13.50;99.90
5246;DHT22;54412;51.206;6.888;2023-10-31T11:40:58;13.60;99.90
5246;DHT22;54412;51.206;6.888;2023-10-31T11:43:55;13.60;99.90
5246;DHT22;54412;51.206;6.888;2023-10-31T11:46:23;13.50;99.90
5246;DHT22;54412;51.206;6.888;2023-10-31T11:48:53;13.50;99.90
5246;DHT22;54412;51.206;6.888;2023-10-31T11:51:21;13.40;99.90
5246;DHT22;54412;51.206;6.888;2023-10-31T11:53:50;13.40;99.90
5246;DHT22;54412;51.206;6.888;2023-10-31T11:56:17;13.30;99.90
5246;DHT22;54412;51.206;6.888;2023-10-31T11:58:43;13.50;99.90
5246;DHT22;54412;51.206;6.888;2023-10-31T12:01:10;13.60;99.90
5246;DHT22;54412;51.206;6.888;2023-10-31T12:03:40;13.60;99.90
5246;DHT22;54412;51.206;6.888;2023-10-31T12:06:08;13.40;99.90
5246;DHT22;54412;51.206;6.888;2023-10-31T12:08:39;13.40;99.90
5246;DHT22;54412;51.206;6.888;2023-10-31T12:11:20;13.40;99.90
5246;DHT22;54412;51.206;6.888;2023-10-31T12:13:55;13.50;99.90
5246;DHT22;54412;51.206;6.888;2023-10-31T12:16:27;13.50;99.90
5246;DHT22;54412;51.206;6.888;2023-10-31T12:19:00;13.50;99.90
5246;DHT22;54412;51.206;6.888;2023-10-31T12:21:46;13.50;99.90
5246;DHT22;54412;51.206;6.888;2023-10-31T12:24:14;13.50;99.90
5246;DHT22;54412;51.206;6.888;2023-10-31T12:26:42;13.50;99.90
5246;DHT22;54412;51.206;6.888;2023-10-31T12:29:17;13.50;99.90
5246;DHT22;54412;51.206;6.888;2023-10-31T12:34:17;13.50;99.90
5246;DHT22;54412;51.206;6.888;2023-10-31T12:36:44;13.50;99.90
5246;DHT22;54412;51.206;6.888;2023-10-31T12:39:12;13.40;99.90
5246;DHT22;54412;51.206;6.888;2023-10-31T12:41:40;13.40;99.90
5246;DHT22;54412;51.206;6.888;2023-10-31T12:44:07;13.50;99.90
5246;DHT22;54412;51.206;6.888;2023-10-31T12:46:35;13.50;99.90
5246;DHT22;54412;51.206;6.888;2023-10-31T12:49:00;13.60;99.90
5246;DHT22;54412;51.206;6.888;2023-10-31T12:51:27;13.60;99.90
5246;DHT22;54412;51.206;6.888;2023-10-31T12:53:53;13.60;99.90
5246;DHT22;54412;51.206;6.888;2023-10-31T12:56:39;13.70;99.90
5246;DHT22;54412;51.206;6.888;2023-10-31T12:59:06;13.80;99.90
5246;DHT22;54412;51.206;6.888;2023-10-31T13:01:36;13.80;99.90
5246;DHT22;54412;51.206;6.888;2023-10-31T13:04:05;13.90;99.90
5246;DHT22;54412;51.206;6.888;2023-10-31T13:06:31;14.00;99.90
5246;DHT22;54412;51.206;6.888;2023-10-31T13:08:58;14.10;99.90
5246;DHT22;54412;51.206;6.888;2023-10-31T13:11:29;14.10;99.90
5246;DHT22;54412;51.206;6.888;2023-10-31T13:13:56;14.20;99.90
5246;DHT22;54412;51.206;6.888;2023-10-31T13:16:23;14.40;99.90
5246;DHT22;54412;51.206;6.888;2023-10-31T13:18:52;14.30;99.90
5246;DHT22;54412;51.206;6.888;2023-10-31T13:21:20;14.40;99.90
5246;DHT22;54412;51.206;6.888;2023-10-31T13:23:45;14.40;99.90
5246;DHT22;54412;51.206;6.888;2023-10-31T13:26:13;14.40;99.90
5246;DHT22;54412;51.206;6.888;2023-10-31T13:28:39;14.40;99.90
5246;DHT22;54412;51.206;6.888;2023-10-31T13:31:06;14.20;99.90
5246;DHT22;54412;51.206;6.888;2023-10-31T13:33:33;14.10;99.90
5246;DHT22;54412;51.206;6.888;2023-10-31T13:35:59;14.20;99.90
5246;DHT22;54412;51.206;6.888;2023-10-31T13:38:24;14.20;99.90
5246;DHT22;54412;51.206;6.888;2023-10-31T13:40:50;14.40;99.90
5246;DHT22;54412;51.206;6.888;2023-10-31T13:43:16;14.60;99.90
5246;DHT22;54412;51.206;6.888;2023-10-31T13:45:41;14.50;99.90
5246;DHT22;54412;51.206;6.888;2023-10-31T13:48:07;14.50;99.90
5246;DHT22;54412;51.206;6.888;2023-10-31T13:50:33;14.60;99.90
5246;DHT22;54412;51.206;6.888;2023-10-31T13:52:59;14.70;99.90
5246;DHT22;54412;51.206;6.888;2023-10-31T13:55:24;15.10;99.90
5246;DHT22;54412;51.206;6.888;2023-10-31T13:57:50;15.30;99.90
5246;DHT22;54412;51.206;6.888;2023-10-31T14:00:16;15.40;99.90
5246;DHT22;54412;51.206;6.888;2023-10-31T14:02:42;15.30;99.90
5246;DHT22;54412;51.206;6.888;2023-10-31T14:05:08;15.10;99.90
5246;DHT22;54412;51.206;6.888;2023-10-31T14:07:34;15.10;99.90
5246;DHT22;54412;51.206;6.888;2023-10-31T14:10:00;15.20;99.90
5246;DHT22;54412;51.206;6.888;2023-10-31T14:12:26;15.40;99.90
5246;DHT22;54412;51.206;6.888;2023-10-31T14:14:53;15.60;99.90
5246;DHT22;54412;51.206;6.888;2023-10-31T14:17:19;15.70;99.90
5246;DHT22;54412;51.206;6.888;2023-10-31T14:19:45;15.90;99.90
5246;DHT22;54412;51.206;6.888;2023-10-31T14:22:12;16.10;99.90
5246;DHT22;54412;51.206;6.888;2023-10-31T14:24:39;16.20;99.90
5246;DHT22;54412;51.206;6.888;2023-10-31T14:27:05;16.40;99.90
5246;DHT22;54412;51.206;6.888;2023-10-31T14:29:30;16.40;99.90
5246;DHT22;54412;51.206;6.888;2023-10-31T14:31:56;16.60;99.90
5246;DHT22;54412;51.206;6.888;2023-10-31T14:34:23;16.80;99.90
5246;DHT22;54412;51.206;6.888;2023-10-31T14:36:49;17.10;99.90
5246;DHT22;54412;51.206;6.888;2023-10-31T14:39:14;17.00;99.90
5246;DHT22;54412;51.206;6.888;2023-10-31T14:41:40;17.30;99.90
5246;DHT22;54412;51.206;6.888;2023-10-31T14:44:06;17.40;99.90
5246;DHT22;54412;51.206;6.888;2023-10-31T14:46:33;18.00;99.90
5246;DHT22;54412;51.206;6.888;2023-10-31T14:48:59;17.20;99.90
5246;DHT22;54412;51.206;6.888;2023-10-31T14:51:25;16.70;99.90
5246;DHT22;54412;51.206;6.888;2023-10-31T14:53:51;16.40;99.90
5246;DHT22;54412;51.206;6.888;2023-10-31T14:56:16;16.10;99.90
5246;DHT22;54412;51.206;6.888;2023-10-31T14:58:42;15.80;99.90
5246;DHT22;54412;51.206;6.888;2023-10-31T15:01:08;15.60;99.90
5246;DHT22;54412;51.206;6.888;2023-10-31T15:03:34;15.40;99.90
5246;DHT22;54412;51.206;6.888;2023-10-31T15:05:59;15.30;99.90
5246;DHT22;54412;51.206;6.888;2023-10-31T15:08:25;15.10;99.90
5246;DHT22;54412;51.206;6.888;2023-10-31T15:10:52;15.10;99.90
5246;DHT22;54412;51.206;6.888;2023-10-31T15:13:18;15.00;99.90
5246;DHT22;54412;51.206;6.888;2023-10-31T15:15:44;14.80;99.90
5246;DHT22;54412;51.206;6.888;2023-10-31T15:18:09;14.80;99.90
5246;DHT22;54412;51.206;6.888;2023-10-31T15:20:35;14.70;99.90
5246;DHT22;54412;51.206;6.888;2023-10-31T15:23:01;14.60;99.90
5246;DHT22;54412;51.206;6.888;2023-10-31T15:25:26;14.60;99.90
5246;DHT22;54412;51.206;6.888;2023-10-31T15:27:52;14.50;99.90
5246;DHT22;54412;51.206;6.888;2023-10-31T15:30:18;14.50;99.90
5246;DHT22;54412;51.206;6.888;2023-10-31T15:32:44;14.40;99.90
5246;DHT22;54412;51.206;6.888;2023-10-31T15:35:09;14.40;99.90
5246;DHT22;54412;51.206;6.888;2023-10-31T15:37:35;14.30;99.90
5246;DHT22;54412;51.206;6.888;2023-10-31T15:40:02;14.30;99.90
5246;DHT22;54412;51.206;6.888;2023-10-31T15:42:29;14.30;99.90
5246;DHT22;54412;51.206;6.888;2023-10-31T15:44:55;14.20;99.90
5246;DHT22;54412;51.206;6.888;2023-10-31T15:47:22;14.20;99.90
5246;DHT22;54412;51.206;6.888;2023-10-31T15:49:48;14.20;99.90
5246;DHT22;54412;51.206;6.888;2023-10-31T15:52:14;14.20;99.90